Time;durP1;ratioP1;P1;durP2;ratioP2;P2;SDS_P1;SDS_P2;PMS_P1;PMS_P2;Temp;Humidity;BMP_temperature;BMP_pressure;BME280_temperature;BME280_humidity;BME280_pressure;Samples;Min_cycle;Max_cycle;Signal;HPM_P1;HPM_P2
2021/06/06 00:00:57;;;;;;;1.43;0.53;;;21.10;99.90;;;;;;20670785;23;20224;-69
2021/06/06 00:11:05;;;;;;;0.20;0.20;;;21.20;99.90;;;;;;20692321;28;20615;-68
2021/06/06 00:21:10;;;;;;;0.30;0.20;;;21.40;99.90;;;;;;20640052;28;20661;-69
2021/06/06 00:31:14;;;;;;;1.13;0.37;;;21.40;99.90;;;;;;20655635;28;20201;-68
2021/06/06 00:41:21;;;;;;;0.23;0.23;;;21.60;99.90;;;;;;20655035;28;20590;-68
2021/06/06 00:51:36;;;;;;;0.20;0.10;;;21.50;99.90;;;;;;20656099;28;20199;-69
2021/06/06 01:01:40;;;;;;;4.20;0.50;;;21.50;99.90;;;;;;20656924;28;20267;-68
2021/06/06 01:11:49;;;;;;;1.23;0.70;;;21.70;99.90;;;;;;20638606;28;20751;-69
2021/06/06 01:22:09;;;;;;;0.20;0.10;;;21.70;99.90;;;;;;20637056;28;20220;-68
2021/06/06 01:32:19;;;;;;;0.40;0.07;;;21.50;99.90;;;;;;20735202;28;20232;-67
2021/06/06 01:42:26;;;;;;;0.47;0.23;;;21.50;99.90;;;;;;20734429;28;20281;-68
2021/06/06 01:52:35;;;;;;;0.60;0.60;;;21.50;99.90;;;;;;20734942;28;20214;-70
2021/06/06 02:02:38;;;;;;;0.87;0.20;;;21.30;99.90;;;;;;20700868;23;20265;-68
2021/06/06 02:12:47;;;;;;;1.30;0.80;;;21.30;99.90;;;;;;20650886;28;20684;-67
2021/06/06 02:22:50;;;;;;;0.40;0.33;;;21.20;99.90;;;;;;20632900;28;20210;-68
2021/06/06 02:33:00;;;;;;;0.83;0.47;;;21.20;99.90;;;;;;20650199;28;20637;-68
2021/06/06 02:43:08;;;;;;;0.30;0.20;;;21.40;99.90;;;;;;20649514;28;20227;-68
2021/06/06 02:53:20;;;;;;;0.67;0.60;;;21.50;99.90;;;;;;20649553;28;20772;-67
2021/06/06 03:03:27;;;;;;;0.20;0.13;;;21.40;99.90;;;;;;20666873;23;20235;-67
2021/06/06 03:13:34;;;;;;;0.20;0.20;;;21.10;99.90;;;;;;20661836;28;20233;-68
2021/06/06 03:23:39;;;;;;;0.70;0.33;;;21.10;99.90;;;;;;20701593;28;20554;-67
2021/06/06 03:33:49;;;;;;;0.30;0.20;;;20.70;99.90;;;;;;20743226;28;20218;-68
2021/06/06 03:43:52;;;;;;;0.20;0.20;;;20.30;99.90;;;;;;20742656;28;20278;-68
2021/06/06 03:53:59;;;;;;;1.33;0.40;;;20.40;99.90;;;;;;20743221;28;20226;-68
2021/06/06 04:04:03;;;;;;;0.30;0.20;;;20.40;99.90;;;;;;20715303;23;20274;-69
2021/06/06 04:14:08;;;;;;;0.33;0.33;;;20.40;99.90;;;;;;20658031;28;20259;-68
2021/06/06 04:24:11;;;;;;;0.30;0.30;;;20.30;99.90;;;;;;20657802;28;20196;-69
2021/06/06 04:34:16;;;;;;;0.20;0.10;;;20.10;99.90;;;;;;20656770;28;20262;-69
2021/06/06 04:44:19;;;;;;;0.60;0.60;;;20.00;99.90;;;;;;20656877;28;20196;-69
2021/06/06 04:54:23;;;;;;;0.20;0.10;;;20.00;99.90;;;;;;20638349;28;20223;-68
2021/06/06 05:04:26;;;;;;;0.30;0.30;;;20.20;99.90;;;;;;20637949;28;20223;-68
2021/06/06 05:14:31;;;;;;;1.03;0.60;;;20.40;99.90;;;;;;20636207;28;20322;-68
2021/06/06 05:24:34;;;;;;;5.30;0.63;;;20.70;99.90;;;;;;20653164;28;20547;-67
2021/06/06 05:34:39;;;;;;;0.60;0.40;;;21.10;99.90;;;;;;20653064;28;20688;-68
2021/06/06 05:44:43;;;;;;;0.27;0.20;;;21.50;99.90;;;;;;20668614;28;20281;-68
2021/06/06 05:54:47;;;;;;;0.73;0.53;;;21.80;99.90;;;;;;20732874;28;20245;-67
2021/06/06 06:04:51;;;;;;;0.20;0.13;;;21.80;99.90;;;;;;20732611;28;20226;-67
2021/06/06 06:14:55;;;;;;;0.83;0.83;;;21.80;99.90;;;;;;20730933;28;20222;-67
2021/06/06 06:24:58;;;;;;;2.30;1.17;;;22.10;99.90;;;;;;20681549;28;20291;-66
2021/06/06 06:35:04;;;;;;;0.53;0.40;;;22.00;99.90;;;;;;20651957;28;20224;-68
2021/06/06 06:45:09;;;;;;;0.33;0.30;;;22.00;99.90;;;;;;20666072;28;20278;-67
2021/06/06 06:55:16;;;;;;;0.70;0.47;;;21.80;99.90;;;;;;20646918;28;20692;-68
2021/06/06 07:05:19;;;;;;;0.60;0.40;;;21.50;99.90;;;;;;20684870;28;20593;-68
2021/06/06 07:15:24;;;;;;;0.30;0.30;;;21.60;99.90;;;;;;20741879;28;20691;-70
2021/06/06 07:25:27;;;;;;;0.57;0.57;;;21.70;99.90;;;;;;20690072;28;20188;-68
2021/06/06 07:35:33;;;;;;;0.53;0.50;;;22.10;99.90;;;;;;20641710;28;20231;-67
2021/06/06 07:45:37;;;;;;;2.67;0.70;;;22.70;99.90;;;;;;20659411;28;20571;-68
2021/06/06 07:55:42;;;;;;;1.80;0.70;;;22.80;99.90;;;;;;20658119;28;20271;-68
2021/06/06 08:05:45;;;;;;;1.33;0.90;;;23.30;99.90;;;;;;20637925;28;20611;-68
2021/06/06 08:15:51;;;;;;;1.08;1.05;;;23.50;99.90;;;;;;20673843;28;20248;-68
2021/06/06 08:25:57;;;;;;;1.40;0.65;;;23.30;99.90;;;;;;20634046;28;20194;-67
2021/06/06 08:36:05;;;;;;;0.77;0.77;;;23.40;99.90;;;;;;20652138;28;20722;-70
2021/06/06 08:46:11;;;;;;;4.70;0.65;;;23.00;99.90;;;;;;20652806;28;20191;-68
2021/06/06 08:56:20;;;;;;;0.22;0.22;;;23.00;99.90;;;;;;20648463;28;20274;-64
2021/06/06 09:06:35;;;;;;;0.55;0.40;;;23.90;99.90;;;;;;20647967;28;20226;-68
2021/06/06 09:16:55;;;;;;;0.57;0.57;;;24.00;99.90;;;;;;20650189;28;20219;-68
2021/06/06 09:27:07;;;;;;;0.68;0.68;;;23.90;99.90;;;;;;20649109;28;20672;-68
2021/06/06 09:37:16;;;;;;;1.35;0.73;;;24.10;99.90;;;;;;20644243;28;20263;-68
2021/06/06 09:47:20;;;;;;;0.95;0.50;;;23.60;99.90;;;;;;20679248;28;20246;-66
2021/06/06 09:57:30;;;;;;;0.43;0.32;;;23.50;99.90;;;;;;20630959;28;20234;-66
2021/06/06 10:07:37;;;;;;;0.95;0.35;;;23.80;99.90;;;;;;20647020;28;20243;-66
2021/06/06 10:17:46;;;;;;;0.55;0.40;;;24.50;99.90;;;;;;20643759;28;20234;-67
2021/06/06 10:27:53;;;;;;;1.13;0.43;;;24.80;99.90;;;;;;20663028;28;20669;-68
2021/06/06 10:38:00;;;;;;;0.50;0.45;;;26.80;99.90;;;;;;20662416;28;20215;-67
2021/06/06 10:48:12;;;;;;;0.20;0.20;;;27.00;99.90;;;;;;20660922;28;20249;-67
2021/06/06 10:58:27;;;;;;;0.65;0.60;;;25.30;99.90;;;;;;20659647;28;20223;-67
2021/06/06 11:08:42;;;;;;;0.20;0.10;;;24.50;99.90;;;;;;20655045;28;20258;-67
2021/06/06 11:18:49;;;;;;;0.22;0.15;;;24.60;99.90;;;;;;20658863;28;20249;-67
2021/06/06 11:29:07;;;;;;;5.95;0.90;;;24.90;99.90;;;;;;20657949;28;20624;-67
2021/06/06 11:39:16;;;;;;;0.50;0.50;;;25.60;99.90;;;;;;20657570;28;20704;-67
2021/06/06 11:49:29;;;;;;;1.45;1.25;;;26.70;99.90;;;;;;20661651;28;20617;-67
2021/06/06 11:59:39;;;;;;;1.00;0.50;;;25.60;99.90;;;;;;20657089;28;20225;-67
2021/06/06 12:09:45;;;;;;;0.28;0.28;;;24.50;99.90;;;;;;20656483;28;20191;-66
2021/06/06 12:19:53;;;;;;;0.77;0.70;;;23.80;99.90;;;;;;20656377;28;20647;-67
2021/06/06 12:29:58;;;;;;;3.92;1.35;;;23.70;99.90;;;;;;20656632;28;20614;-68
2021/06/06 12:40:05;;;;;;;0.28;0.28;;;24.30;99.90;;;;;;20655010;28;20223;-66
2021/06/06 12:50:22;;;;;;;0.40;0.40;;;25.00;99.90;;;;;;20653832;28;20552;-66
2021/06/06 13:00:30;;;;;;;0.93;0.35;;;27.00;99.90;;;;;;20653285;28;20234;-68
2021/06/06 13:10:36;;;;;;;2.58;0.70;;;26.80;99.90;;;;;;20653410;28;20191;-67
2021/06/06 13:20:52;;;;;;;9.52;0.80;;;24.80;99.90;;;;;;20652773;28;20277;-68
2021/06/06 13:30:57;;;;;;;0.60;0.60;;;24.50;99.90;;;;;;20652638;28;20209;-67
2021/06/06 13:41:04;;;;;;;3.13;0.85;;;27.00;99.90;;;;;;20649772;28;20754;-66
2021/06/06 13:51:07;;;;;;;0.77;0.68;;;27.30;99.90;;;;;;20648762;28;20199;-66
2021/06/06 14:01:12;;;;;;;2.17;0.57;;;27.50;99.90;;;;;;20647206;28;20661;-66
2021/06/06 14:11:18;;;;;;;0.57;0.47;;;27.60;99.90;;;;;;20646320;28;20547;-63
2021/06/06 14:21:25;;;;;;;5.82;1.02;;;27.10;99.90;;;;;;20646503;28;20759;-66
2021/06/06 14:31:29;;;;;;;2.33;0.63;;;27.50;99.90;;;;;;20645495;28;20290;-65
2021/06/06 14:41:34;;;;;;;2.60;1.55;;;27.20;99.90;;;;;;20646068;28;20223;-66
2021/06/06 14:51:39;;;;;;;0.60;0.60;;;27.70;99.90;;;;;;20629636;28;20200;-65
2021/06/06 15:01:44;;;;;;;3.05;1.00;;;27.80;99.90;;;;;;20654725;28;20258;-66
2021/06/06 15:11:48;;;;;;;3.30;0.93;;;26.80;99.90;;;;;;20659326;28;20203;-68
2021/06/06 15:21:52;;;;;;;0.55;0.45;;;27.20;99.90;;;;;;20657506;28;20294;-68
2021/06/06 15:31:56;;;;;;;3.15;0.95;;;27.30;99.90;;;;;;20657385;28;20192;-66
2021/06/06 15:42:01;;;;;;;0.65;0.63;;;26.70;99.90;;;;;;20655377;28;20235;-66
2021/06/06 15:52:08;;;;;;;1.13;0.60;;;27.30;99.90;;;;;;20656933;28;20207;-67
2021/06/06 16:02:18;;;;;;;0.20;0.20;;;27.30;99.90;;;;;;20655233;28;20228;-65
2021/06/06 16:12:21;;;;;;;0.38;0.30;;;26.50;99.90;;;;;;20653292;28;20199;-65
2021/06/06 16:22:27;;;;;;;0.63;0.45;;;27.30;99.90;;;;;;20634126;28;20250;-67
2021/06/06 16:32:30;;;;;;;0.30;0.30;;;25.80;99.90;;;;;;20634387;28;20192;-66
2021/06/06 16:42:34;;;;;;;0.30;0.30;;;24.80;99.90;;;;;;20651173;28;20254;-67
2021/06/06 16:52:40;;;;;;;0.20;0.17;;;24.20;99.90;;;;;;20633464;28;20738;-67
2021/06/06 17:02:45;;;;;;;0.77;0.57;;;23.50;99.90;;;;;;20652640;28;20231;-69
2021/06/06 17:12:48;;;;;;;0.73;0.55;;;23.60;99.90;;;;;;20633554;28;20303;-68
2021/06/06 17:22:54;;;;;;;0.30;0.30;;;23.80;99.90;;;;;;20635618;28;20229;-67
2021/06/06 17:32:59;;;;;;;1.53;0.43;;;23.60;99.90;;;;;;20729841;28;20195;-68
2021/06/06 17:43:04;;;;;;;1.10;0.80;;;22.50;99.90;;;;;;20731972;28;20381;-68
2021/06/06 17:53:09;;;;;;;4.63;1.80;;;21.70;99.90;;;;;;20721230;28;20245;-68
2021/06/06 18:03:15;;;;;;;0.87;0.57;;;21.30;99.90;;;;;;20730558;28;20779;-68
2021/06/06 18:13:21;;;;;;;0.83;0.83;;;20.70;99.90;;;;;;20730506;28;20191;-67
2021/06/06 18:23:26;;;;;;;1.90;0.63;;;20.70;99.90;;;;;;20694093;28;20230;-67
2021/06/06 18:33:29;;;;;;;0.40;0.37;;;21.20;99.90;;;;;;20654384;28;20578;-69
2021/06/06 18:43:34;;;;;;;0.50;0.30;;;22.10;99.90;;;;;;20647022;28;20322;-69
2021/06/06 18:53:38;;;;;;;3.17;0.60;;;21.80;99.90;;;;;;20663363;28;20219;-68
2021/06/06 19:03:44;;;;;;;0.30;0.27;;;21.20;99.90;;;;;;20656686;28;20244;-69
2021/06/06 19:13:47;;;;;;;0.40;0.30;;;20.70;99.90;;;;;;20651982;28;20258;-64
2021/06/06 19:23:52;;;;;;;0.40;0.40;;;20.50;99.90;;;;;;20657426;28;20229;-67
2021/06/06 19:33:56;;;;;;;1.23;1.00;;;20.40;99.90;;;;;;20728109;28;20213;-69
2021/06/06 19:44:19;;;;;;;1.17;0.53;;;20.40;99.90;;;;;;20737601;28;20313;-68
2021/06/06 19:54:23;;;;;;;0.57;0.53;;;20.20;99.90;;;;;;20730654;28;20559;-67
2021/06/06 20:04:28;;;;;;;1.17;0.63;;;20.20;99.90;;;;;;20735783;28;20234;-61
2021/06/06 20:14:37;;;;;;;5.13;1.23;;;20.10;99.90;;;;;;20646327;28;20196;-66
2021/06/06 20:24:43;;;;;;;0.77;0.63;;;20.30;99.90;;;;;;20652939;28;20581;-66
2021/06/06 20:35:12;;;;;;;1.77;0.60;;;20.10;99.90;;;;;;20649786;28;20222;-67
2021/06/06 20:45:20;;;;;;;0.43;0.43;;;20.20;99.90;;;;;;20734577;28;20309;-67
2021/06/06 20:55:25;;;;;;;0.20;0.20;;;19.60;99.90;;;;;;20732749;28;20309;-67
2021/06/06 21:05:30;;;;;;;4.17;1.40;;;19.30;99.90;;;;;;20682800;28;20223;-67
2021/06/06 21:15:34;;;;;;;0.50;0.50;;;19.20;99.90;;;;;;20686694;28;20223;-69
2021/06/06 21:25:43;;;;;;;0.30;0.30;;;19.10;99.90;;;;;;20661021;28;20196;-68
2021/06/06 21:35:46;;;;;;;0.47;0.47;;;18.80;99.90;;;;;;20659091;28;20243;-69
2021/06/06 21:45:51;;;;;;;0.23;0.23;;;18.90;99.90;;;;;;20653327;28;20199;-68
2021/06/06 21:55:57;;;;;;;0.20;0.20;;;19.00;99.90;;;;;;20688754;28;20231;-68
2021/06/06 22:06:01;;;;;;;0.20;0.10;;;18.90;99.90;;;;;;20688890;28;20215;-67
2021/06/06 22:16:06;;;;;;;0.20;0.10;;;18.80;99.90;;;;;;20686397;28;20227;-67
2021/06/06 22:26:49;;;;;;;1.03;0.93;;;18.70;99.90;;;;;;20671024;28;20202;-69
2021/06/06 22:37:29;;;;;;;0.30;0.30;;;18.70;99.90;;;;;;20685606;28;20246;-68
2021/06/06 22:48:09;;;;;;;0.20;0.10;;;18.60;99.90;;;;;;20667635;28;20572;-69
2021/06/06 22:58:49;;;;;;;0.20;0.10;;;18.50;99.90;;;;;;20685805;28;20314;-68
2021/06/06 23:09:30;;;;;;;0.60;0.30;;;18.60;99.90;;;;;;20719962;28;20572;-69
2021/06/06 23:19:38;;;;;;;0.40;0.20;;;18.70;99.90;;;;;;20729081;28;20318;-69
2021/06/06 23:29:42;;;;;;;0.50;0.33;;;18.50;99.90;;;;;;20661294;28;20238;-68
2021/06/06 23:39:48;;;;;;;0.20;0.20;;;18.50;99.90;;;;;;20661505;28;20282;-68
2021/06/06 23:49:51;;;;;;;0.93;0.67;;;18.40;99.90;;;;;;20660868;28;20206;-67
2021/06/06 23:59:55;;;;;;;0.30;0.30;;;18.30;99.90;;;;;;20670621;23;20513;-68
